sensor_id;sensor_type;location;lat;lon;timestamp;P1;durP1;ratioP1;P2;durP2;ratioP2
32838;SDS011;19182;41.820;12.808;2023-09-19T00:01:32;14.82;;;7.38;;
32838;SDS011;19182;41.820;12.808;2023-09-19T00:03:59;14.73;;;7.22;;
32838;SDS011;19182;41.820;12.808;2023-09-19T00:06:30;14.82;;;7.18;;
32838;SDS011;19182;41.820;12.808;2023-09-19T00:08:57;13.57;;;7.05;;
32838;SDS011;19182;41.820;12.808;2023-09-19T00:11:25;11.35;;;5.80;;
32838;SDS011;19182;41.820;12.808;2023-09-19T00:13:51;12.50;;;5.22;;
32838;SDS011;19182;41.820;12.808;2023-09-19T00:16:17;11.73;;;5.38;;
32838;SDS011;19182;41.820;12.808;2023-09-19T00:18:44;10.63;;;5.90;;
32838;SDS011;19182;41.820;12.808;2023-09-19T00:21:10;14.35;;;6.50;;
32838;SDS011;19182;41.820;12.808;2023-09-19T00:23:37;15.52;;;6.57;;
32838;SDS011;19182;41.820;12.808;2023-09-19T00:26:05;18.05;;;6.15;;
32838;SDS011;19182;41.820;12.808;2023-09-19T00:28:31;13.55;;;7.10;;
32838;SDS011;19182;41.820;12.808;2023-09-19T00:30:57;13.10;;;6.70;;
32838;SDS011;19182;41.820;12.808;2023-09-19T00:33:26;11.60;;;7.13;;
32838;SDS011;19182;41.820;12.808;2023-09-19T00:35:54;13.10;;;6.75;;
32838;SDS011;19182;41.820;12.808;2023-09-19T00:38:22;18.80;;;6.95;;
32838;SDS011;19182;41.820;12.808;2023-09-19T00:40:52;14.38;;;5.82;;
32838;SDS011;19182;41.820;12.808;2023-09-19T00:43:18;12.05;;;5.43;;
32838;SDS011;19182;41.820;12.808;2023-09-19T00:45:46;9.63;;;5.78;;
32838;SDS011;19182;41.820;12.808;2023-09-19T00:48:14;11.95;;;6.55;;
32838;SDS011;19182;41.820;12.808;2023-09-19T00:50:43;19.70;;;7.00;;
32838;SDS011;19182;41.820;12.808;2023-09-19T00:53:13;23.20;;;7.07;;
32838;SDS011;19182;41.820;12.808;2023-09-19T00:55:43;15.57;;;7.57;;
32838;SDS011;19182;41.820;12.808;2023-09-19T00:58:11;15.70;;;6.70;;
32838;SDS011;19182;41.820;12.808;2023-09-19T01:00:37;17.35;;;6.65;;
32838;SDS011;19182;41.820;12.808;2023-09-19T01:03:05;15.73;;;8.07;;
32838;SDS011;19182;41.820;12.808;2023-09-19T01:05:31;12.25;;;6.60;;
32838;SDS011;19182;41.820;12.808;2023-09-19T01:08:00;9.07;;;7.00;;
32838;SDS011;19182;41.820;12.808;2023-09-19T01:10:26;18.33;;;7.18;;
32838;SDS011;19182;41.820;12.808;2023-09-19T01:23:35;16.10;;;7.13;;
32838;SDS011;19182;41.820;12.808;2023-09-19T01:32:05;15.68;;;6.20;;
32838;SDS011;19182;41.820;12.808;2023-09-19T01:37:11;15.18;;;6.85;;
32838;SDS011;19182;41.820;12.808;2023-09-19T01:39:38;13.90;;;6.43;;
32838;SDS011;19182;41.820;12.808;2023-09-19T01:47:19;14.23;;;6.50;;
32838;SDS011;19182;41.820;12.808;2023-09-19T01:49:53;13.77;;;6.38;;
32838;SDS011;19182;41.820;12.808;2023-09-19T01:52:31;20.85;;;7.65;;
32838;SDS011;19182;41.820;12.808;2023-09-19T01:55:08;11.57;;;6.60;;
32838;SDS011;19182;41.820;12.808;2023-09-19T02:00:41;12.15;;;6.85;;
32838;SDS011;19182;41.820;12.808;2023-09-19T02:03:10;17.35;;;6.88;;
32838;SDS011;19182;41.820;12.808;2023-09-19T02:05:37;11.65;;;7.30;;
32838;SDS011;19182;41.820;12.808;2023-09-19T02:08:04;12.15;;;6.35;;
32838;SDS011;19182;41.820;12.808;2023-09-19T02:10:30;20.55;;;7.03;;
32838;SDS011;19182;41.820;12.808;2023-09-19T02:12:56;16.85;;;6.90;;
32838;SDS011;19182;41.820;12.808;2023-09-19T02:15:22;17.23;;;6.97;;
32838;SDS011;19182;41.820;12.808;2023-09-19T02:17:48;13.48;;;7.20;;
32838;SDS011;19182;41.820;12.808;2023-09-19T02:20:15;21.83;;;7.53;;
32838;SDS011;19182;41.820;12.808;2023-09-19T02:22:42;20.73;;;6.78;;
32838;SDS011;19182;41.820;12.808;2023-09-19T02:25:09;9.07;;;6.78;;
32838;SDS011;19182;41.820;12.808;2023-09-19T02:27:35;15.57;;;7.10;;
32838;SDS011;19182;41.820;12.808;2023-09-19T02:30:02;15.43;;;7.05;;
32838;SDS011;19182;41.820;12.808;2023-09-19T02:32:31;14.68;;;6.50;;
32838;SDS011;19182;41.820;12.808;2023-09-19T02:35:00;13.32;;;5.93;;
32838;SDS011;19182;41.820;12.808;2023-09-19T02:37:26;14.68;;;6.43;;
32838;SDS011;19182;41.820;12.808;2023-09-19T02:39:51;15.27;;;6.72;;
32838;SDS011;19182;41.820;12.808;2023-09-19T02:42:18;20.98;;;5.95;;
32838;SDS011;19182;41.820;12.808;2023-09-19T02:44:44;14.88;;;6.18;;
32838;SDS011;19182;41.820;12.808;2023-09-19T02:47:13;12.77;;;7.17;;
32838;SDS011;19182;41.820;12.808;2023-09-19T02:49:40;12.63;;;5.85;;
32838;SDS011;19182;41.820;12.808;2023-09-19T02:52:07;13.60;;;5.63;;
32838;SDS011;19182;41.820;12.808;2023-09-19T02:54:33;8.85;;;5.68;;
32838;SDS011;19182;41.820;12.808;2023-09-19T02:56:58;15.18;;;5.50;;
32838;SDS011;19182;41.820;12.808;2023-09-19T02:59:25;14.05;;;5.72;;
32838;SDS011;19182;41.820;12.808;2023-09-19T03:01:51;15.63;;;6.38;;
32838;SDS011;19182;41.820;12.808;2023-09-19T03:04:19;13.25;;;5.85;;
32838;SDS011;19182;41.820;12.808;2023-09-19T03:06:46;13.82;;;6.43;;
32838;SDS011;19182;41.820;12.808;2023-09-19T03:09:14;16.85;;;6.00;;
32838;SDS011;19182;41.820;12.808;2023-09-19T03:11:41;12.90;;;5.30;;
32838;SDS011;19182;41.820;12.808;2023-09-19T03:14:07;19.08;;;5.90;;
32838;SDS011;19182;41.820;12.808;2023-09-19T03:16:32;16.90;;;5.97;;
32838;SDS011;19182;41.820;12.808;2023-09-19T03:21:29;10.15;;;5.68;;
32838;SDS011;19182;41.820;12.808;2023-09-19T03:23:55;13.38;;;5.38;;
32838;SDS011;19182;41.820;12.808;2023-09-19T03:26:22;9.38;;;4.80;;
32838;SDS011;19182;41.820;12.808;2023-09-19T03:28:51;13.00;;;4.60;;
32838;SDS011;19182;41.820;12.808;2023-09-19T03:31:18;12.60;;;5.03;;
32838;SDS011;19182;41.820;12.808;2023-09-19T03:33:44;13.30;;;5.72;;
32838;SDS011;19182;41.820;12.808;2023-09-19T03:36:11;13.13;;;5.25;;
32838;SDS011;19182;41.820;12.808;2023-09-19T03:38:38;12.77;;;5.38;;
32838;SDS011;19182;41.820;12.808;2023-09-19T03:41:04;11.20;;;4.30;;
32838;SDS011;19182;41.820;12.808;2023-09-19T03:43:29;9.15;;;4.97;;
32838;SDS011;19182;41.820;12.808;2023-09-19T03:45:56;12.43;;;5.30;;
32838;SDS011;19182;41.820;12.808;2023-09-19T03:48:26;12.95;;;4.82;;
32838;SDS011;19182;41.820;12.808;2023-09-19T03:50:51;13.85;;;5.20;;
32838;SDS011;19182;41.820;12.808;2023-09-19T03:53:21;18.35;;;5.28;;
32838;SDS011;19182;41.820;12.808;2023-09-19T03:55:47;12.23;;;3.80;;
32838;SDS011;19182;41.820;12.808;2023-09-19T03:58:13;14.20;;;4.07;;
32838;SDS011;19182;41.820;12.808;2023-09-19T04:00:38;9.35;;;4.00;;
32838;SDS011;19182;41.820;12.808;2023-09-19T04:03:06;7.40;;;3.20;;
32838;SDS011;19182;41.820;12.808;2023-09-19T04:05:32;8.20;;;3.20;;
32838;SDS011;19182;41.820;12.808;2023-09-19T04:07:58;6.90;;;3.40;;
32838;SDS011;19182;41.820;12.808;2023-09-19T04:10:24;6.45;;;2.72;;
32838;SDS011;19182;41.820;12.808;2023-09-19T04:12:53;9.25;;;3.47;;
32838;SDS011;19182;41.820;12.808;2023-09-19T04:15:21;9.18;;;3.42;;
32838;SDS011;19182;41.820;12.808;2023-09-19T04:17:51;11.48;;;3.33;;
32838;SDS011;19182;41.820;12.808;2023-09-19T04:20:17;7.27;;;2.80;;
32838;SDS011;19182;41.820;12.808;2023-09-19T04:22:50;8.50;;;2.90;;
32838;SDS011;19182;41.820;12.808;2023-09-19T04:25:16;4.93;;;3.05;;
32838;SDS011;19182;41.820;12.808;2023-09-19T04:27:43;12.25;;;3.50;;
32838;SDS011;19182;41.820;12.808;2023-09-19T04:30:09;7.97;;;3.97;;
32838;SDS011;19182;41.820;12.808;2023-09-19T04:32:37;8.43;;;4.05;;
32838;SDS011;19182;41.820;12.808;2023-09-19T04:35:06;11.35;;;4.80;;
32838;SDS011;19182;41.820;12.808;2023-09-19T04:37:35;15.00;;;4.70;;
32838;SDS011;19182;41.820;12.808;2023-09-19T04:40:07;12.57;;;4.20;;
32838;SDS011;19182;41.820;12.808;2023-09-19T04:42:42;8.60;;;4.05;;
32838;SDS011;19182;41.820;12.808;2023-09-19T04:45:08;9.55;;;4.07;;
32838;SDS011;19182;41.820;12.808;2023-09-19T04:47:35;9.82;;;4.57;;
32838;SDS011;19182;41.820;12.808;2023-09-19T04:50:04;17.35;;;5.30;;
32838;SDS011;19182;41.820;12.808;2023-09-19T04:52:32;11.15;;;5.45;;
32838;SDS011;19182;41.820;12.808;2023-09-19T04:54:58;18.35;;;6.18;;
32838;SDS011;19182;41.820;12.808;2023-09-19T04:57:23;30.50;;;7.45;;
32838;SDS011;19182;41.820;12.808;2023-09-19T04:59:51;26.75;;;8.45;;
32838;SDS011;19182;41.820;12.808;2023-09-19T05:02:16;43.97;;;9.30;;
32838;SDS011;19182;41.820;12.808;2023-09-19T05:04:43;42.20;;;8.20;;
32838;SDS011;19182;41.820;12.808;2023-09-19T05:07:09;14.70;;;4.47;;
32838;SDS011;19182;41.820;12.808;2023-09-19T05:09:35;23.45;;;4.55;;
32838;SDS011;19182;41.820;12.808;2023-09-19T05:12:02;39.42;;;7.05;;
32838;SDS011;19182;41.820;12.808;2023-09-19T05:14:28;41.10;;;7.85;;
32838;SDS011;19182;41.820;12.808;2023-09-19T05:16:56;33.60;;;5.05;;
32838;SDS011;19182;41.820;12.808;2023-09-19T05:19:22;25.08;;;3.90;;
32838;SDS011;19182;41.820;12.808;2023-09-19T05:21:47;35.17;;;4.95;;
32838;SDS011;19182;41.820;12.808;2023-09-19T05:24:14;23.77;;;3.58;;
32838;SDS011;19182;41.820;12.808;2023-09-19T05:26:40;27.83;;;5.43;;
32838;SDS011;19182;41.820;12.808;2023-09-19T05:29:06;20.73;;;4.97;;
32838;SDS011;19182;41.820;12.808;2023-09-19T05:31:33;29.55;;;6.20;;
32838;SDS011;19182;41.820;12.808;2023-09-19T05:34:01;18.55;;;5.03;;
32838;SDS011;19182;41.820;12.808;2023-09-19T05:36:28;26.73;;;6.63;;
32838;SDS011;19182;41.820;12.808;2023-09-19T05:38:54;40.00;;;10.50;;
32838;SDS011;19182;41.820;12.808;2023-09-19T05:41:20;35.42;;;7.72;;
32838;SDS011;19182;41.820;12.808;2023-09-19T05:43:48;36.78;;;9.15;;
32838;SDS011;19182;41.820;12.808;2023-09-19T05:46:16;32.22;;;8.55;;
32838;SDS011;19182;41.820;12.808;2023-09-19T05:48:42;25.75;;;7.40;;
32838;SDS011;19182;41.820;12.808;2023-09-19T05:51:09;24.90;;;8.50;;
32838;SDS011;19182;41.820;12.808;2023-09-19T05:53:36;15.85;;;6.68;;
32838;SDS011;19182;41.820;12.808;2023-09-19T05:56:02;24.25;;;6.25;;
32838;SDS011;19182;41.820;12.808;2023-09-19T05:58:28;24.35;;;5.63;;
32838;SDS011;19182;41.820;12.808;2023-09-19T06:00:56;25.90;;;6.50;;
32838;SDS011;19182;41.820;12.808;2023-09-19T06:03:22;19.02;;;6.20;;
32838;SDS011;19182;41.820;12.808;2023-09-19T06:05:49;15.07;;;6.05;;
32838;SDS011;19182;41.820;12.808;2023-09-19T06:08:16;15.52;;;6.05;;
32838;SDS011;19182;41.820;12.808;2023-09-19T06:10:42;17.08;;;6.13;;
32838;SDS011;19182;41.820;12.808;2023-09-19T06:13:07;14.70;;;6.13;;
32838;SDS011;19182;41.820;12.808;2023-09-19T06:15:34;14.30;;;6.07;;
32838;SDS011;19182;41.820;12.808;2023-09-19T06:18:01;12.80;;;5.32;;
32838;SDS011;19182;41.820;12.808;2023-09-19T06:20:27;10.18;;;5.05;;
32838;SDS011;19182;41.820;12.808;2023-09-19T06:22:54;13.30;;;5.00;;
32838;SDS011;19182;41.820;12.808;2023-09-19T06:25:20;14.82;;;5.72;;
32838;SDS011;19182;41.820;12.808;2023-09-19T06:27:47;17.67;;;5.85;;
32838;SDS011;19182;41.820;12.808;2023-09-19T06:30:14;16.00;;;4.53;;
32838;SDS011;19182;41.820;12.808;2023-09-19T06:32:40;16.25;;;5.30;;
32838;SDS011;19182;41.820;12.808;2023-09-19T06:35:11;16.75;;;5.43;;
32838;SDS011;19182;41.820;12.808;2023-09-19T06:37:38;14.43;;;5.88;;
32838;SDS011;19182;41.820;12.808;2023-09-19T06:40:08;16.58;;;5.30;;
32838;SDS011;19182;41.820;12.808;2023-09-19T06:42:39;14.07;;;4.80;;
32838;SDS011;19182;41.820;12.808;2023-09-19T06:45:12;21.30;;;5.78;;
32838;SDS011;19182;41.820;12.808;2023-09-19T06:47:42;20.00;;;6.05;;
32838;SDS011;19182;41.820;12.808;2023-09-19T06:50:09;28.05;;;6.32;;
32838;SDS011;19182;41.820;12.808;2023-09-19T06:52:39;17.65;;;5.63;;
32838;SDS011;19182;41.820;12.808;2023-09-19T06:55:06;13.65;;;4.72;;
32838;SDS011;19182;41.820;12.808;2023-09-19T06:57:32;14.35;;;5.15;;
32838;SDS011;19182;41.820;12.808;2023-09-19T06:59:58;18.60;;;5.80;;
32838;SDS011;19182;41.820;12.808;2023-09-19T07:02:25;18.17;;;4.85;;
32838;SDS011;19182;41.820;12.808;2023-09-19T07:04:51;16.20;;;5.07;;
32838;SDS011;19182;41.820;12.808;2023-09-19T07:07:17;21.65;;;4.88;;
32838;SDS011;19182;41.820;12.808;2023-09-19T07:09:42;30.30;;;6.38;;
32838;SDS011;19182;41.820;12.808;2023-09-19T07:12:08;32.03;;;6.15;;
32838;SDS011;19182;41.820;12.808;2023-09-19T07:14:34;28.05;;;6.45;;
32838;SDS011;19182;41.820;12.808;2023-09-19T07:17:01;23.17;;;6.10;;
32838;SDS011;19182;41.820;12.808;2023-09-19T07:19:29;22.05;;;6.45;;
32838;SDS011;19182;41.820;12.808;2023-09-19T07:21:56;19.23;;;5.65;;
32838;SDS011;19182;41.820;12.808;2023-09-19T07:24:24;18.70;;;5.45;;
32838;SDS011;19182;41.820;12.808;2023-09-19T07:26:52;11.23;;;5.07;;
32838;SDS011;19182;41.820;12.808;2023-09-19T07:29:18;31.30;;;5.43;;
32838;SDS011;19182;41.820;12.808;2023-09-19T07:31:44;22.75;;;5.45;;
32838;SDS011;19182;41.820;12.808;2023-09-19T07:34:09;35.03;;;6.22;;
32838;SDS011;19182;41.820;12.808;2023-09-19T07:36:35;39.00;;;5.32;;
32838;SDS011;19182;41.820;12.808;2023-09-19T07:39:03;39.50;;;6.65;;
32838;SDS011;19182;41.820;12.808;2023-09-19T07:41:32;45.88;;;7.70;;
32838;SDS011;19182;41.820;12.808;2023-09-19T07:43:59;35.25;;;6.00;;
32838;SDS011;19182;41.820;12.808;2023-09-19T07:46:24;31.10;;;6.07;;
32838;SDS011;19182;41.820;12.808;2023-09-19T07:48:51;33.67;;;5.80;;
32838;SDS011;19182;41.820;12.808;2023-09-19T07:51:17;18.10;;;5.03;;
32838;SDS011;19182;41.820;12.808;2023-09-19T07:53:43;28.50;;;5.63;;
32838;SDS011;19182;41.820;12.808;2023-09-19T07:56:10;29.88;;;5.75;;
32838;SDS011;19182;41.820;12.808;2023-09-19T07:58:38;34.13;;;6.30;;
32838;SDS011;19182;41.820;12.808;2023-09-19T08:01:09;24.80;;;5.22;;
32838;SDS011;19182;41.820;12.808;2023-09-19T08:03:35;27.95;;;5.32;;
32838;SDS011;19182;41.820;12.808;2023-09-19T08:06:09;27.23;;;6.15;;
32838;SDS011;19182;41.820;12.808;2023-09-19T08:08:35;38.28;;;6.18;;
32838;SDS011;19182;41.820;12.808;2023-09-19T08:11:02;25.15;;;5.18;;
32838;SDS011;19182;41.820;12.808;2023-09-19T08:13:40;22.55;;;5.35;;
32838;SDS011;19182;41.820;12.808;2023-09-19T08:16:11;12.45;;;4.28;;
32838;SDS011;19182;41.820;12.808;2023-09-19T08:18:40;19.30;;;5.20;;
32838;SDS011;19182;41.820;12.808;2023-09-19T08:21:06;18.92;;;5.43;;
32838;SDS011;19182;41.820;12.808;2023-09-19T08:23:35;19.25;;;4.10;;
32838;SDS011;19182;41.820;12.808;2023-09-19T08:26:01;20.23;;;4.93;;
32838;SDS011;19182;41.820;12.808;2023-09-19T08:28:31;36.75;;;5.05;;
32838;SDS011;19182;41.820;12.808;2023-09-19T08:31:01;29.48;;;5.07;;
32838;SDS011;19182;41.820;12.808;2023-09-19T08:33:34;20.92;;;4.07;;
32838;SDS011;19182;41.820;12.808;2023-09-19T08:36:02;30.35;;;5.20;;
32838;SDS011;19182;41.820;12.808;2023-09-19T08:38:31;11.75;;;4.63;;
32838;SDS011;19182;41.820;12.808;2023-09-19T08:40:58;23.15;;;4.65;;
32838;SDS011;19182;41.820;12.808;2023-09-19T08:43:25;14.07;;;4.75;;
32838;SDS011;19182;41.820;12.808;2023-09-19T08:45:53;31.63;;;4.72;;
32838;SDS011;19182;41.820;12.808;2023-09-19T08:48:29;18.52;;;4.43;;
32838;SDS011;19182;41.820;12.808;2023-09-19T08:51:03;17.40;;;5.47;;
32838;SDS011;19182;41.820;12.808;2023-09-19T08:53:42;14.77;;;4.47;;
32838;SDS011;19182;41.820;12.808;2023-09-19T08:56:19;15.63;;;4.03;;
32838;SDS011;19182;41.820;12.808;2023-09-19T08:58:51;14.50;;;3.95;;
32838;SDS011;19182;41.820;12.808;2023-09-19T09:01:23;9.82;;;3.78;;
32838;SDS011;19182;41.820;12.808;2023-09-19T09:03:52;13.95;;;3.90;;
32838;SDS011;19182;41.820;12.808;2023-09-19T09:06:19;11.10;;;4.07;;
32838;SDS011;19182;41.820;12.808;2023-09-19T09:08:46;11.70;;;3.55;;
32838;SDS011;19182;41.820;12.808;2023-09-19T09:11:15;6.38;;;2.90;;
32838;SDS011;19182;41.820;12.808;2023-09-19T09:13:43;10.27;;;3.58;;
32838;SDS011;19182;41.820;12.808;2023-09-19T09:16:12;14.90;;;3.58;;
32838;SDS011;19182;41.820;12.808;2023-09-19T09:18:39;9.55;;;3.30;;
32838;SDS011;19182;41.820;12.808;2023-09-19T09:21:06;16.00;;;3.95;;
32838;SDS011;19182;41.820;12.808;2023-09-19T09:23:31;13.57;;;3.78;;
32838;SDS011;19182;41.820;12.808;2023-09-19T09:25:58;15.63;;;3.90;;
32838;SDS011;19182;41.820;12.808;2023-09-19T09:28:31;20.75;;;4.20;;
32838;SDS011;19182;41.820;12.808;2023-09-19T09:30:58;10.73;;;3.60;;
32838;SDS011;19182;41.820;12.808;2023-09-19T09:33:25;17.05;;;3.90;;
32838;SDS011;19182;41.820;12.808;2023-09-19T09:35:53;11.85;;;3.70;;
32838;SDS011;19182;41.820;12.808;2023-09-19T09:38:26;14.98;;;3.95;;
32838;SDS011;19182;41.820;12.808;2023-09-19T09:40:56;16.90;;;4.10;;
32838;SDS011;19182;41.820;12.808;2023-09-19T09:43:33;21.05;;;3.97;;
32838;SDS011;19182;41.820;12.808;2023-09-19T09:48:48;18.23;;;3.90;;
32838;SDS011;19182;41.820;12.808;2023-09-19T09:54:22;11.90;;;4.43;;
32838;SDS011;19182;41.820;12.808;2023-09-19T09:56:56;22.23;;;4.30;;
32838;SDS011;19182;41.820;12.808;2023-09-19T10:02:40;10.73;;;2.88;;
32838;SDS011;19182;41.820;12.808;2023-09-19T10:05:17;10.55;;;2.83;;
32838;SDS011;19182;41.820;12.808;2023-09-19T10:07:52;16.55;;;4.75;;
32838;SDS011;19182;41.820;12.808;2023-09-19T10:10:32;14.40;;;3.70;;
32838;SDS011;19182;41.820;12.808;2023-09-19T10:13:11;24.00;;;8.48;;
32838;SDS011;19182;41.820;12.808;2023-09-19T10:15:39;10.65;;;3.28;;
32838;SDS011;19182;41.820;12.808;2023-09-19T10:18:15;25.25;;;10.02;;
32838;SDS011;19182;41.820;12.808;2023-09-19T10:20:46;15.15;;;5.20;;
32838;SDS011;19182;41.820;12.808;2023-09-19T10:23:13;12.88;;;3.55;;
32838;SDS011;19182;41.820;12.808;2023-09-19T10:25:47;15.50;;;4.68;;
32838;SDS011;19182;41.820;12.808;2023-09-19T10:28:17;15.32;;;5.45;;
32838;SDS011;19182;41.820;12.808;2023-09-19T10:30:48;19.75;;;6.55;;
32838;SDS011;19182;41.820;12.808;2023-09-19T10:33:22;14.60;;;3.50;;
32838;SDS011;19182;41.820;12.808;2023-09-19T10:35:54;22.98;;;6.15;;
32838;SDS011;19182;41.820;12.808;2023-09-19T10:38:26;10.40;;;3.08;;
32838;SDS011;19182;41.820;12.808;2023-09-19T10:40:54;9.40;;;3.13;;
32838;SDS011;19182;41.820;12.808;2023-09-19T10:43:25;10.32;;;2.80;;
32838;SDS011;19182;41.820;12.808;2023-09-19T10:45:55;9.27;;;3.47;;
32838;SDS011;19182;41.820;12.808;2023-09-19T10:48:32;13.55;;;3.63;;
32838;SDS011;19182;41.820;12.808;2023-09-19T10:53:29;7.40;;;3.05;;
32838;SDS011;19182;41.820;12.808;2023-09-19T10:56:10;9.77;;;3.13;;
32838;SDS011;19182;41.820;12.808;2023-09-19T10:58:44;10.45;;;2.65;;
32838;SDS011;19182;41.820;12.808;2023-09-19T11:01:10;12.70;;;3.40;;
32838;SDS011;19182;41.820;12.808;2023-09-19T11:03:37;16.30;;;4.18;;
32838;SDS011;19182;41.820;12.808;2023-09-19T11:06:40;11.43;;;3.70;;
32838;SDS011;19182;41.820;12.808;2023-09-19T11:09:09;10.02;;;2.80;;
32838;SDS011;19182;41.820;12.808;2023-09-19T11:17:02;11.48;;;2.58;;
32838;SDS011;19182;41.820;12.808;2023-09-19T11:30:50;11.18;;;3.03;;
32838;SDS011;19182;41.820;12.808;2023-09-19T11:33:30;12.15;;;3.33;;
32838;SDS011;19182;41.820;12.808;2023-09-19T11:43:46;10.43;;;3.10;;
32838;SDS011;19182;41.820;12.808;2023-09-19T11:46:12;9.13;;;3.28;;
32838;SDS011;19182;41.820;12.808;2023-09-19T11:48:42;10.82;;;2.70;;
32838;SDS011;19182;41.820;12.808;2023-09-19T11:51:19;12.05;;;3.58;;
32838;SDS011;19182;41.820;12.808;2023-09-19T11:53:51;12.90;;;3.63;;
32838;SDS011;19182;41.820;12.808;2023-09-19T11:56:20;8.95;;;2.80;;
32838;SDS011;19182;41.820;12.808;2023-09-19T11:58:49;14.13;;;4.72;;
32838;SDS011;19182;41.820;12.808;2023-09-19T12:01:31;20.25;;;8.93;;
32838;SDS011;19182;41.820;12.808;2023-09-19T12:04:00;7.50;;;2.70;;
32838;SDS011;19182;41.820;12.808;2023-09-19T12:06:27;10.88;;;3.85;;
32838;SDS011;19182;41.820;12.808;2023-09-19T12:09:01;17.35;;;4.85;;
32838;SDS011;19182;41.820;12.808;2023-09-19T12:11:32;12.95;;;4.28;;
32838;SDS011;19182;41.820;12.808;2023-09-19T12:13:58;18.95;;;7.15;;
32838;SDS011;19182;41.820;12.808;2023-09-19T12:16:26;8.00;;;2.60;;
32838;SDS011;19182;41.820;12.808;2023-09-19T12:18:55;8.80;;;3.22;;
32838;SDS011;19182;41.820;12.808;2023-09-19T12:21:24;14.50;;;3.97;;
32838;SDS011;19182;41.820;12.808;2023-09-19T12:23:59;11.95;;;3.17;;
32838;SDS011;19182;41.820;12.808;2023-09-19T12:26:29;7.72;;;2.60;;
32838;SDS011;19182;41.820;12.808;2023-09-19T12:29:02;8.50;;;2.80;;
32838;SDS011;19182;41.820;12.808;2023-09-19T12:31:30;10.55;;;2.65;;
32838;SDS011;19182;41.820;12.808;2023-09-19T12:34:01;11.98;;;3.38;;
32838;SDS011;19182;41.820;12.808;2023-09-19T12:36:27;7.20;;;2.20;;
32838;SDS011;19182;41.820;12.808;2023-09-19T12:38:58;11.95;;;2.38;;
32838;SDS011;19182;41.820;12.808;2023-09-19T12:41:25;10.45;;;2.67;;
32838;SDS011;19182;41.820;12.808;2023-09-19T12:43:52;6.53;;;2.53;;
32838;SDS011;19182;41.820;12.808;2023-09-19T12:46:22;12.85;;;4.85;;
32838;SDS011;19182;41.820;12.808;2023-09-19T12:49:14;11.32;;;4.60;;
32838;SDS011;19182;41.820;12.808;2023-09-19T12:51:45;15.95;;;6.05;;
32838;SDS011;19182;41.820;12.808;2023-09-19T12:54:15;15.02;;;4.57;;
32838;SDS011;19182;41.820;12.808;2023-09-19T12:56:42;12.68;;;3.75;;
32838;SDS011;19182;41.820;12.808;2023-09-19T12:59:10;12.73;;;5.32;;
32838;SDS011;19182;41.820;12.808;2023-09-19T13:01:40;11.23;;;2.22;;
32838;SDS011;19182;41.820;12.808;2023-09-19T13:04:18;11.85;;;3.10;;
32838;SDS011;19182;41.820;12.808;2023-09-19T13:06:55;11.82;;;2.30;;
32838;SDS011;19182;41.820;12.808;2023-09-19T13:09:26;8.75;;;2.53;;
32838;SDS011;19182;41.820;12.808;2023-09-19T13:12:04;9.32;;;2.50;;
32838;SDS011;19182;41.820;12.808;2023-09-19T13:14:32;8.93;;;2.87;;
32838;SDS011;19182;41.820;12.808;2023-09-19T13:17:05;9.65;;;3.05;;
32838;SDS011;19182;41.820;12.808;2023-09-19T13:19:50;6.38;;;2.75;;
32838;SDS011;19182;41.820;12.808;2023-09-19T13:25:20;7.00;;;2.30;;
32838;SDS011;19182;41.820;12.808;2023-09-19T13:30:24;12.02;;;2.20;;
32838;SDS011;19182;41.820;12.808;2023-09-19T13:33:04;7.82;;;2.28;;
32838;SDS011;19182;41.820;12.808;2023-09-19T13:35:34;9.52;;;3.75;;
32838;SDS011;19182;41.820;12.808;2023-09-19T13:38:03;6.93;;;2.63;;
32838;SDS011;19182;41.820;12.808;2023-09-19T13:40:29;4.07;;;2.28;;
32838;SDS011;19182;41.820;12.808;2023-09-19T13:43:00;11.02;;;4.63;;
32838;SDS011;19182;41.820;12.808;2023-09-19T13:45:26;12.25;;;3.17;;
32838;SDS011;19182;41.820;12.808;2023-09-19T13:47:52;7.75;;;2.22;;
32838;SDS011;19182;41.820;12.808;2023-09-19T13:50:18;7.25;;;2.67;;
32838;SDS011;19182;41.820;12.808;2023-09-19T13:52:49;10.18;;;3.03;;
32838;SDS011;19182;41.820;12.808;2023-09-19T13:55:16;12.95;;;3.20;;
32838;SDS011;19182;41.820;12.808;2023-09-19T13:57:45;11.95;;;5.45;;
32838;SDS011;19182;41.820;12.808;2023-09-19T14:00:21;9.10;;;4.15;;
32838;SDS011;19182;41.820;12.808;2023-09-19T14:02:47;11.35;;;4.32;;
32838;SDS011;19182;41.820;12.808;2023-09-19T14:05:14;12.18;;;3.75;;
32838;SDS011;19182;41.820;12.808;2023-09-19T14:07:42;14.63;;;6.32;;
32838;SDS011;19182;41.820;12.808;2023-09-19T14:10:08;7.18;;;2.22;;
32838;SDS011;19182;41.820;12.808;2023-09-19T14:12:36;7.93;;;2.85;;
32838;SDS011;19182;41.820;12.808;2023-09-19T14:15:08;8.45;;;2.75;;
32838;SDS011;19182;41.820;12.808;2023-09-19T14:17:35;10.63;;;2.58;;
32838;SDS011;19182;41.820;12.808;2023-09-19T14:20:01;12.68;;;4.65;;
32838;SDS011;19182;41.820;12.808;2023-09-19T14:22:27;6.72;;;2.85;;
32838;SDS011;19182;41.820;12.808;2023-09-19T14:24:53;8.48;;;3.08;;
32838;SDS011;19182;41.820;12.808;2023-09-19T14:27:19;13.52;;;5.07;;
32838;SDS011;19182;41.820;12.808;2023-09-19T14:29:45;5.32;;;2.75;;
32838;SDS011;19182;41.820;12.808;2023-09-19T14:32:13;12.93;;;3.42;;
32838;SDS011;19182;41.820;12.808;2023-09-19T14:34:42;9.85;;;3.33;;
32838;SDS011;19182;41.820;12.808;2023-09-19T14:37:09;10.00;;;2.75;;
32838;SDS011;19182;41.820;12.808;2023-09-19T14:39:36;11.25;;;2.53;;
32838;SDS011;19182;41.820;12.808;2023-09-19T14:42:05;8.75;;;2.85;;
32838;SDS011;19182;41.820;12.808;2023-09-19T14:44:31;6.85;;;2.47;;
32838;SDS011;19182;41.820;12.808;2023-09-19T14:46:57;8.60;;;2.45;;
32838;SDS011;19182;41.820;12.808;2023-09-19T14:49:23;8.32;;;2.28;;
32838;SDS011;19182;41.820;12.808;2023-09-19T14:51:51;7.70;;;2.58;;
32838;SDS011;19182;41.820;12.808;2023-09-19T14:54:17;9.40;;;2.35;;
32838;SDS011;19182;41.820;12.808;2023-09-19T14:56:43;15.30;;;6.70;;
32838;SDS011;19182;41.820;12.808;2023-09-19T14:59:10;9.07;;;4.18;;
32838;SDS011;19182;41.820;12.808;2023-09-19T15:01:40;11.52;;;2.67;;
32838;SDS011;19182;41.820;12.808;2023-09-19T15:04:07;6.65;;;2.78;;
32838;SDS011;19182;41.820;12.808;2023-09-19T15:06:33;7.95;;;3.67;;
32838;SDS011;19182;41.820;12.808;2023-09-19T15:08:59;5.10;;;2.47;;
32838;SDS011;19182;41.820;12.808;2023-09-19T15:11:26;12.07;;;3.72;;
32838;SDS011;19182;41.820;12.808;2023-09-19T15:13:52;8.63;;;2.72;;
32838;SDS011;19182;41.820;12.808;2023-09-19T15:16:19;6.00;;;2.15;;
32838;SDS011;19182;41.820;12.808;2023-09-19T15:18:45;7.70;;;3.05;;
32838;SDS011;19182;41.820;12.808;2023-09-19T15:21:14;15.15;;;5.10;;
32838;SDS011;19182;41.820;12.808;2023-09-19T15:23:41;8.00;;;2.20;;
32838;SDS011;19182;41.820;12.808;2023-09-19T15:26:08;8.82;;;3.22;;
32838;SDS011;19182;41.820;12.808;2023-09-19T15:28:36;9.95;;;4.22;;
32838;SDS011;19182;41.820;12.808;2023-09-19T15:31:03;11.57;;;6.20;;
32838;SDS011;19182;41.820;12.808;2023-09-19T15:33:33;5.88;;;2.10;;
32838;SDS011;19182;41.820;12.808;2023-09-19T15:36:09;12.85;;;5.78;;
32838;SDS011;19182;41.820;12.808;2023-09-19T15:41:37;6.78;;;3.17;;
32838;SDS011;19182;41.820;12.808;2023-09-19T15:44:04;7.88;;;2.20;;
32838;SDS011;19182;41.820;12.808;2023-09-19T15:46:36;6.78;;;2.10;;